sensor_id;sensor_type;location;lat;lon;timestamp;temperature;humidity
24860;DHT22;12936;52.006;4.350;2022-10-30T00:01:30;18.40;99.90
24860;DHT22;12936;52.006;4.350;2022-10-30T00:04:01;18.40;99.90
24860;DHT22;12936;52.006;4.350;2022-10-30T00:06:30;18.40;99.90
24860;DHT22;12936;52.006;4.350;2022-10-30T00:08:59;18.40;99.90
24860;DHT22;12936;52.006;4.350;2022-10-30T00:11:28;18.30;99.90
24860;DHT22;12936;52.006;4.350;2022-10-30T00:13:57;18.30;99.90
24860;DHT22;12936;52.006;4.350;2022-10-30T00:16:25;18.30;99.90
24860;DHT22;12936;52.006;4.350;2022-10-30T00:18:53;18.30;99.90
24860;DHT22;12936;52.006;4.350;2022-10-30T00:21:21;18.30;99.90
24860;DHT22;12936;52.006;4.350;2022-10-30T00:23:51;18.30;99.90
24860;DHT22;12936;52.006;4.350;2022-10-30T00:26:21;18.30;99.90
24860;DHT22;12936;52.006;4.350;2022-10-30T00:28:52;18.30;99.90
24860;DHT22;12936;52.006;4.350;2022-10-30T00:31:21;18.30;99.90
24860;DHT22;12936;52.006;4.350;2022-10-30T00:33:50;18.30;99.90
24860;DHT22;12936;52.006;4.350;2022-10-30T00:36:19;18.30;99.90
24860;DHT22;12936;52.006;4.350;2022-10-30T00:38:47;18.20;99.90
24860;DHT22;12936;52.006;4.350;2022-10-30T00:41:21;18.30;99.90
24860;DHT22;12936;52.006;4.350;2022-10-30T00:43:52;18.20;99.90
24860;DHT22;12936;52.006;4.350;2022-10-30T00:46:29;18.20;99.90
24860;DHT22;12936;52.006;4.350;2022-10-30T00:49:02;18.20;99.90
24860;DHT22;12936;52.006;4.350;2022-10-30T00:51:32;18.20;99.90
24860;DHT22;12936;52.006;4.350;2022-10-30T00:54:02;18.20;99.90
24860;DHT22;12936;52.006;4.350;2022-10-30T00:56:31;18.20;99.90
24860;DHT22;12936;52.006;4.350;2022-10-30T00:59:05;18.20;99.90
24860;DHT22;12936;52.006;4.350;2022-10-30T01:01:40;18.20;99.90
24860;DHT22;12936;52.006;4.350;2022-10-30T01:04:10;18.20;99.90
24860;DHT22;12936;52.006;4.350;2022-10-30T01:06:40;18.10;99.90
24860;DHT22;12936;52.006;4.350;2022-10-30T01:09:09;18.10;99.90
24860;DHT22;12936;52.006;4.350;2022-10-30T01:11:38;18.10;99.90
24860;DHT22;12936;52.006;4.350;2022-10-30T01:14:09;18.10;99.90
24860;DHT22;12936;52.006;4.350;2022-10-30T01:19:37;18.00;99.90
24860;DHT22;12936;52.006;4.350;2022-10-30T01:22:23;18.00;99.90
24860;DHT22;12936;52.006;4.350;2022-10-30T01:25:03;18.00;99.90
24860;DHT22;12936;52.006;4.350;2022-10-30T01:27:41;18.00;99.90
24860;DHT22;12936;52.006;4.350;2022-10-30T01:30:24;18.00;99.90
24860;DHT22;12936;52.006;4.350;2022-10-30T01:33:03;17.90;99.90
24860;DHT22;12936;52.006;4.350;2022-10-30T01:35:40;17.90;99.90
24860;DHT22;12936;52.006;4.350;2022-10-30T01:38:15;17.90;99.90
24860;DHT22;12936;52.006;4.350;2022-10-30T01:40:44;17.90;99.90
24860;DHT22;12936;52.006;4.350;2022-10-30T01:43:12;17.90;99.90
24860;DHT22;12936;52.006;4.350;2022-10-30T01:46:06;17.90;99.90
24860;DHT22;12936;52.006;4.350;2022-10-30T01:48:56;17.80;99.90
24860;DHT22;12936;52.006;4.350;2022-10-30T01:51:38;17.80;99.90
24860;DHT22;12936;52.006;4.350;2022-10-30T01:54:18;17.80;99.90
24860;DHT22;12936;52.006;4.350;2022-10-30T01:57:01;17.80;99.90
24860;DHT22;12936;52.006;4.350;2022-10-30T01:59:35;17.80;99.90
24860;DHT22;12936;52.006;4.350;2022-10-30T02:02:06;17.70;99.90
24860;DHT22;12936;52.006;4.350;2022-10-30T02:04:34;17.70;99.90
24860;DHT22;12936;52.006;4.350;2022-10-30T02:07:03;17.70;99.90
24860;DHT22;12936;52.006;4.350;2022-10-30T02:09:31;17.70;99.90
24860;DHT22;12936;52.006;4.350;2022-10-30T02:12:01;17.70;99.90
24860;DHT22;12936;52.006;4.350;2022-10-30T02:14:32;17.70;99.90
24860;DHT22;12936;52.006;4.350;2022-10-30T02:17:06;17.70;99.90
24860;DHT22;12936;52.006;4.350;2022-10-30T02:19:35;17.70;99.90
24860;DHT22;12936;52.006;4.350;2022-10-30T02:22:05;17.70;99.90
24860;DHT22;12936;52.006;4.350;2022-10-30T02:24:34;17.70;99.90
24860;DHT22;12936;52.006;4.350;2022-10-30T02:27:03;17.70;99.90
24860;DHT22;12936;52.006;4.350;2022-10-30T02:29:31;17.60;99.90
24860;DHT22;12936;52.006;4.350;2022-10-30T02:32:00;17.60;99.90
24860;DHT22;12936;52.006;4.350;2022-10-30T02:34:48;17.70;99.90
24860;DHT22;12936;52.006;4.350;2022-10-30T02:37:37;17.60;99.90
24860;DHT22;12936;52.006;4.350;2022-10-30T02:40:06;17.60;99.90
24860;DHT22;12936;52.006;4.350;2022-10-30T02:42:35;17.60;99.90
24860;DHT22;12936;52.006;4.350;2022-10-30T02:45:03;17.60;99.90
24860;DHT22;12936;52.006;4.350;2022-10-30T02:47:32;17.60;99.90
24860;DHT22;12936;52.006;4.350;2022-10-30T02:50:00;17.60;99.90
24860;DHT22;12936;52.006;4.350;2022-10-30T02:52:29;17.60;99.90
24860;DHT22;12936;52.006;4.350;2022-10-30T02:54:58;17.60;99.90
24860;DHT22;12936;52.006;4.350;2022-10-30T02:57:35;17.60;99.90
24860;DHT22;12936;52.006;4.350;2022-10-30T03:00:04;17.50;99.90
24860;DHT22;12936;52.006;4.350;2022-10-30T03:02:32;17.60;99.90
24860;DHT22;12936;52.006;4.350;2022-10-30T03:05:01;17.60;99.90
24860;DHT22;12936;52.006;4.350;2022-10-30T03:07:30;17.50;99.90
24860;DHT22;12936;52.006;4.350;2022-10-30T03:10:00;17.50;99.90
24860;DHT22;12936;52.006;4.350;2022-10-30T03:12:29;17.50;99.90
24860;DHT22;12936;52.006;4.350;2022-10-30T03:14:57;17.50;99.90
24860;DHT22;12936;52.006;4.350;2022-10-30T03:17:26;17.50;99.90
24860;DHT22;12936;52.006;4.350;2022-10-30T03:19:54;17.40;99.90
24860;DHT22;12936;52.006;4.350;2022-10-30T03:22:23;17.40;99.90
24860;DHT22;12936;52.006;4.350;2022-10-30T03:24:51;17.40;99.90
24860;DHT22;12936;52.006;4.350;2022-10-30T03:27:20;17.40;99.90
24860;DHT22;12936;52.006;4.350;2022-10-30T03:29:48;17.40;99.90
24860;DHT22;12936;52.006;4.350;2022-10-30T03:32:16;17.30;99.90
24860;DHT22;12936;52.006;4.350;2022-10-30T03:34:45;17.30;99.90
24860;DHT22;12936;52.006;4.350;2022-10-30T03:37:36;17.30;99.90
24860;DHT22;12936;52.006;4.350;2022-10-30T03:40:18;17.30;99.90
24860;DHT22;12936;52.006;4.350;2022-10-30T03:42:47;17.30;99.90
24860;DHT22;12936;52.006;4.350;2022-10-30T03:45:16;17.20;99.90
24860;DHT22;12936;52.006;4.350;2022-10-30T03:47:44;17.20;99.90
24860;DHT22;12936;52.006;4.350;2022-10-30T03:50:13;17.20;99.90
24860;DHT22;12936;52.006;4.350;2022-10-30T03:52:41;17.20;99.90
24860;DHT22;12936;52.006;4.350;2022-10-30T03:55:12;17.10;99.90
24860;DHT22;12936;52.006;4.350;2022-10-30T03:57:40;17.10;99.90
24860;DHT22;12936;52.006;4.350;2022-10-30T04:00:11;17.10;99.90
24860;DHT22;12936;52.006;4.350;2022-10-30T04:02:45;17.10;99.90
24860;DHT22;12936;52.006;4.350;2022-10-30T04:05:15;17.10;99.90
24860;DHT22;12936;52.006;4.350;2022-10-30T04:07:45;17.00;99.90
24860;DHT22;12936;52.006;4.350;2022-10-30T04:10:14;17.00;99.90
24860;DHT22;12936;52.006;4.350;2022-10-30T04:12:49;17.00;99.90
24860;DHT22;12936;52.006;4.350;2022-10-30T04:15:19;17.00;99.90
24860;DHT22;12936;52.006;4.350;2022-10-30T04:17:48;17.00;99.90
24860;DHT22;12936;52.006;4.350;2022-10-30T04:20:18;16.90;99.90
24860;DHT22;12936;52.006;4.350;2022-10-30T04:22:46;16.90;99.90
24860;DHT22;12936;52.006;4.350;2022-10-30T04:25:16;16.90;99.90
24860;DHT22;12936;52.006;4.350;2022-10-30T04:27:45;16.90;99.90
24860;DHT22;12936;52.006;4.350;2022-10-30T04:30:15;16.90;99.90
24860;DHT22;12936;52.006;4.350;2022-10-30T04:32:48;16.80;99.90
24860;DHT22;12936;52.006;4.350;2022-10-30T04:35:18;16.90;99.90
24860;DHT22;12936;52.006;4.350;2022-10-30T04:37:51;16.90;99.90
24860;DHT22;12936;52.006;4.350;2022-10-30T04:40:19;16.80;99.90
24860;DHT22;12936;52.006;4.350;2022-10-30T04:42:48;16.80;99.90
24860;DHT22;12936;52.006;4.350;2022-10-30T04:45:18;16.80;99.90
24860;DHT22;12936;52.006;4.350;2022-10-30T04:48:00;16.80;99.90
24860;DHT22;12936;52.006;4.350;2022-10-30T04:50:29;16.80;99.90
24860;DHT22;12936;52.006;4.350;2022-10-30T04:52:58;16.80;99.90
24860;DHT22;12936;52.006;4.350;2022-10-30T04:55:27;16.80;99.90
24860;DHT22;12936;52.006;4.350;2022-10-30T04:57:57;16.80;99.90
24860;DHT22;12936;52.006;4.350;2022-10-30T05:00:26;16.80;99.90
24860;DHT22;12936;52.006;4.350;2022-10-30T05:02:57;16.80;99.90
24860;DHT22;12936;52.006;4.350;2022-10-30T05:05:26;16.80;99.90
24860;DHT22;12936;52.006;4.350;2022-10-30T05:07:54;16.80;99.90
24860;DHT22;12936;52.006;4.350;2022-10-30T05:10:23;16.80;99.90
24860;DHT22;12936;52.006;4.350;2022-10-30T05:12:52;16.70;99.90
24860;DHT22;12936;52.006;4.350;2022-10-30T05:15:20;16.70;99.90
24860;DHT22;12936;52.006;4.350;2022-10-30T05:17:50;16.70;99.90
24860;DHT22;12936;52.006;4.350;2022-10-30T05:20:20;16.70;99.90
24860;DHT22;12936;52.006;4.350;2022-10-30T05:22:53;16.70;99.90
24860;DHT22;12936;52.006;4.350;2022-10-30T05:25:21;16.70;99.90
24860;DHT22;12936;52.006;4.350;2022-10-30T05:27:50;16.60;99.90
24860;DHT22;12936;52.006;4.350;2022-10-30T05:30:18;16.60;99.90
24860;DHT22;12936;52.006;4.350;2022-10-30T05:32:46;16.60;99.90
24860;DHT22;12936;52.006;4.350;2022-10-30T05:35:14;16.60;99.90
24860;DHT22;12936;52.006;4.350;2022-10-30T05:37:43;16.50;99.90
24860;DHT22;12936;52.006;4.350;2022-10-30T05:40:11;16.50;99.90
24860;DHT22;12936;52.006;4.350;2022-10-30T05:42:44;16.50;99.90
24860;DHT22;12936;52.006;4.350;2022-10-30T05:45:12;16.50;99.90
24860;DHT22;12936;52.006;4.350;2022-10-30T05:47:40;16.50;99.90
24860;DHT22;12936;52.006;4.350;2022-10-30T05:50:09;16.50;99.90
24860;DHT22;12936;52.006;4.350;2022-10-30T05:52:37;16.40;99.90
24860;DHT22;12936;52.006;4.350;2022-10-30T05:55:08;16.40;99.90
24860;DHT22;12936;52.006;4.350;2022-10-30T05:57:35;16.40;99.90
24860;DHT22;12936;52.006;4.350;2022-10-30T06:00:05;16.40;99.90
24860;DHT22;12936;52.006;4.350;2022-10-30T06:02:33;16.40;99.90
24860;DHT22;12936;52.006;4.350;2022-10-30T06:05:01;16.30;99.90
24860;DHT22;12936;52.006;4.350;2022-10-30T06:07:29;16.30;99.90
24860;DHT22;12936;52.006;4.350;2022-10-30T06:09:57;16.30;99.90
24860;DHT22;12936;52.006;4.350;2022-10-30T06:12:26;16.30;99.90
24860;DHT22;12936;52.006;4.350;2022-10-30T06:14:54;16.30;99.90
24860;DHT22;12936;52.006;4.350;2022-10-30T06:17:22;16.30;99.90
24860;DHT22;12936;52.006;4.350;2022-10-30T06:19:50;16.30;99.90
24860;DHT22;12936;52.006;4.350;2022-10-30T06:22:18;16.30;99.90
24860;DHT22;12936;52.006;4.350;2022-10-30T06:24:46;16.30;99.90
24860;DHT22;12936;52.006;4.350;2022-10-30T06:27:13;16.30;99.90
24860;DHT22;12936;52.006;4.350;2022-10-30T06:29:43;16.30;99.90
24860;DHT22;12936;52.006;4.350;2022-10-30T06:32:11;16.30;99.90
24860;DHT22;12936;52.006;4.350;2022-10-30T06:34:39;16.30;99.90
24860;DHT22;12936;52.006;4.350;2022-10-30T06:37:08;16.30;99.90
24860;DHT22;12936;52.006;4.350;2022-10-30T06:39:36;16.30;99.90
24860;DHT22;12936;52.006;4.350;2022-10-30T06:42:06;16.30;99.90
24860;DHT22;12936;52.006;4.350;2022-10-30T06:44:36;16.30;99.90
24860;DHT22;12936;52.006;4.350;2022-10-30T06:47:05;16.40;99.90
24860;DHT22;12936;52.006;4.350;2022-10-30T06:49:33;16.30;99.90
24860;DHT22;12936;52.006;4.350;2022-10-30T06:52:01;16.30;99.90
24860;DHT22;12936;52.006;4.350;2022-10-30T06:54:29;16.40;99.90
24860;DHT22;12936;52.006;4.350;2022-10-30T06:56:57;16.40;99.90
24860;DHT22;12936;52.006;4.350;2022-10-30T06:59:25;16.40;99.90
24860;DHT22;12936;52.006;4.350;2022-10-30T07:01:53;16.40;99.90
24860;DHT22;12936;52.006;4.350;2022-10-30T07:04:29;16.40;99.90
24860;DHT22;12936;52.006;4.350;2022-10-30T07:06:57;16.40;99.90
24860;DHT22;12936;52.006;4.350;2022-10-30T07:09:25;16.40;99.90
24860;DHT22;12936;52.006;4.350;2022-10-30T07:11:53;16.50;99.90
24860;DHT22;12936;52.006;4.350;2022-10-30T07:14:22;16.50;99.90
24860;DHT22;12936;52.006;4.350;2022-10-30T07:16:50;16.50;99.90
24860;DHT22;12936;52.006;4.350;2022-10-30T07:19:20;16.50;99.90
24860;DHT22;12936;52.006;4.350;2022-10-30T07:21:50;16.50;99.90
24860;DHT22;12936;52.006;4.350;2022-10-30T07:24:18;16.50;99.90
24860;DHT22;12936;52.006;4.350;2022-10-30T07:26:46;16.60;99.90
24860;DHT22;12936;52.006;4.350;2022-10-30T07:29:13;16.60;99.90
24860;DHT22;12936;52.006;4.350;2022-10-30T07:31:41;16.60;99.90
24860;DHT22;12936;52.006;4.350;2022-10-30T07:34:27;16.60;99.90
24860;DHT22;12936;52.006;4.350;2022-10-30T07:36:56;16.60;99.90
24860;DHT22;12936;52.006;4.350;2022-10-30T07:39:24;16.70;99.90
24860;DHT22;12936;52.006;4.350;2022-10-30T07:41:52;16.70;99.90
24860;DHT22;12936;52.006;4.350;2022-10-30T07:44:20;16.70;99.90
24860;DHT22;12936;52.006;4.350;2022-10-30T07:46:48;16.80;99.90
24860;DHT22;12936;52.006;4.350;2022-10-30T07:49:16;16.80;99.90
24860;DHT22;12936;52.006;4.350;2022-10-30T07:51:44;16.80;99.90
24860;DHT22;12936;52.006;4.350;2022-10-30T07:54:13;16.90;99.90
24860;DHT22;12936;52.006;4.350;2022-10-30T07:56:41;16.90;99.90
24860;DHT22;12936;52.006;4.350;2022-10-30T07:59:09;16.90;99.90
24860;DHT22;12936;52.006;4.350;2022-10-30T08:01:37;17.00;99.90
24860;DHT22;12936;52.006;4.350;2022-10-30T08:04:05;17.00;99.90
24860;DHT22;12936;52.006;4.350;2022-10-30T08:06:33;17.10;99.90
24860;DHT22;12936;52.006;4.350;2022-10-30T08:09:01;17.10;99.90
24860;DHT22;12936;52.006;4.350;2022-10-30T08:11:31;17.10;99.90
24860;DHT22;12936;52.006;4.350;2022-10-30T08:13:59;17.10;99.90
24860;DHT22;12936;52.006;4.350;2022-10-30T08:16:27;17.20;99.90
24860;DHT22;12936;52.006;4.350;2022-10-30T08:18:55;17.20;99.90
24860;DHT22;12936;52.006;4.350;2022-10-30T08:21:23;17.30;99.90
24860;DHT22;12936;52.006;4.350;2022-10-30T08:23:51;17.30;99.90
24860;DHT22;12936;52.006;4.350;2022-10-30T08:26:19;17.30;99.90
24860;DHT22;12936;52.006;4.350;2022-10-30T08:28:48;17.40;99.90
24860;DHT22;12936;52.006;4.350;2022-10-30T08:31:16;17.40;99.90
24860;DHT22;12936;52.006;4.350;2022-10-30T08:33:44;17.40;99.90
24860;DHT22;12936;52.006;4.350;2022-10-30T08:36:12;17.50;99.90
24860;DHT22;12936;52.006;4.350;2022-10-30T08:38:40;17.50;99.90
24860;DHT22;12936;52.006;4.350;2022-10-30T08:41:08;17.50;99.90
24860;DHT22;12936;52.006;4.350;2022-10-30T08:43:36;17.60;99.90
24860;DHT22;12936;52.006;4.350;2022-10-30T08:46:06;17.60;99.90
24860;DHT22;12936;52.006;4.350;2022-10-30T08:48:33;17.60;99.90
24860;DHT22;12936;52.006;4.350;2022-10-30T08:51:01;17.60;99.90
24860;DHT22;12936;52.006;4.350;2022-10-30T08:53:29;17.70;99.90
24860;DHT22;12936;52.006;4.350;2022-10-30T08:55:57;17.70;99.90
24860;DHT22;12936;52.006;4.350;2022-10-30T08:58:25;17.70;99.90
24860;DHT22;12936;52.006;4.350;2022-10-30T09:00:53;17.80;99.90
24860;DHT22;12936;52.006;4.350;2022-10-30T09:03:28;17.80;99.90
24860;DHT22;12936;52.006;4.350;2022-10-30T09:05:57;17.80;99.90
24860;DHT22;12936;52.006;4.350;2022-10-30T09:08:27;17.80;99.90
24860;DHT22;12936;52.006;4.350;2022-10-30T09:10:55;17.80;99.90
24860;DHT22;12936;52.006;4.350;2022-10-30T09:13:23;17.80;99.90
24860;DHT22;12936;52.006;4.350;2022-10-30T09:15:52;17.80;99.90
24860;DHT22;12936;52.006;4.350;2022-10-30T09:18:20;17.90;99.90
24860;DHT22;12936;52.006;4.350;2022-10-30T09:20:49;17.80;99.90
24860;DHT22;12936;52.006;4.350;2022-10-30T09:23:17;17.90;99.90
24860;DHT22;12936;52.006;4.350;2022-10-30T09:25:45;17.90;99.90
24860;DHT22;12936;52.006;4.350;2022-10-30T09:28:13;17.90;99.90
24860;DHT22;12936;52.006;4.350;2022-10-30T09:30:41;17.90;99.90
24860;DHT22;12936;52.006;4.350;2022-10-30T09:33:09;18.00;99.90
24860;DHT22;12936;52.006;4.350;2022-10-30T09:35:37;18.00;99.90
24860;DHT22;12936;52.006;4.350;2022-10-30T09:38:06;18.10;99.90
24860;DHT22;12936;52.006;4.350;2022-10-30T09:40:43;18.10;99.90
24860;DHT22;12936;52.006;4.350;2022-10-30T09:43:22;18.20;99.90
24860;DHT22;12936;52.006;4.350;2022-10-30T09:46:11;18.20;99.90
24860;DHT22;12936;52.006;4.350;2022-10-30T09:49:04;18.20;99.90
24860;DHT22;12936;52.006;4.350;2022-10-30T09:51:47;18.30;99.90
24860;DHT22;12936;52.006;4.350;2022-10-30T09:54:27;18.30;99.90
24860;DHT22;12936;52.006;4.350;2022-10-30T09:57:06;18.40;99.90
24860;DHT22;12936;52.006;4.350;2022-10-30T09:59:43;18.40;99.90
24860;DHT22;12936;52.006;4.350;2022-10-30T10:02:29;18.50;99.90
24860;DHT22;12936;52.006;4.350;2022-10-30T10:05:03;18.50;99.90
24860;DHT22;12936;52.006;4.350;2022-10-30T10:07:36;18.50;99.90
24860;DHT22;12936;52.006;4.350;2022-10-30T10:10:15;18.50;99.90
24860;DHT22;12936;52.006;4.350;2022-10-30T10:12:46;18.60;99.90
24860;DHT22;12936;52.006;4.350;2022-10-30T10:15:23;18.60;99.90
24860;DHT22;12936;52.006;4.350;2022-10-30T10:17:58;18.60;99.90
24860;DHT22;12936;52.006;4.350;2022-10-30T10:20:32;18.60;99.90
24860;DHT22;12936;52.006;4.350;2022-10-30T10:23:09;18.70;99.90
24860;DHT22;12936;52.006;4.350;2022-10-30T10:25:41;18.60;99.90
24860;DHT22;12936;52.006;4.350;2022-10-30T10:28:20;18.70;99.90
24860;DHT22;12936;52.006;4.350;2022-10-30T10:30:56;18.70;99.90
24860;DHT22;12936;52.006;4.350;2022-10-30T10:33:41;18.80;99.90
24860;DHT22;12936;52.006;4.350;2022-10-30T10:36:22;18.80;99.90
24860;DHT22;12936;52.006;4.350;2022-10-30T10:39:00;18.90;99.90
24860;DHT22;12936;52.006;4.350;2022-10-30T10:41:46;18.80;99.90
24860;DHT22;12936;52.006;4.350;2022-10-30T10:44:28;18.90;99.90
24860;DHT22;12936;52.006;4.350;2022-10-30T10:47:09;18.90;99.90
24860;DHT22;12936;52.006;4.350;2022-10-30T10:49:53;18.90;99.90
24860;DHT22;12936;52.006;4.350;2022-10-30T10:52:31;18.90;99.90
24860;DHT22;12936;52.006;4.350;2022-10-30T10:55:04;18.90;99.90
24860;DHT22;12936;52.006;4.350;2022-10-30T10:57:37;19.00;99.90
24860;DHT22;12936;52.006;4.350;2022-10-30T11:00:09;19.00;99.90
24860;DHT22;12936;52.006;4.350;2022-10-30T11:02:43;19.00;99.90
24860;DHT22;12936;52.006;4.350;2022-10-30T11:05:20;19.10;99.90
24860;DHT22;12936;52.006;4.350;2022-10-30T11:07:52;19.10;99.90
24860;DHT22;12936;52.006;4.350;2022-10-30T11:10:24;19.20;99.90
24860;DHT22;12936;52.006;4.350;2022-10-30T11:12:53;19.20;99.90
24860;DHT22;12936;52.006;4.350;2022-10-30T11:15:38;19.20;99.90
24860;DHT22;12936;52.006;4.350;2022-10-30T11:18:08;19.30;99.90
24860;DHT22;12936;52.006;4.350;2022-10-30T11:20:40;19.30;99.90
24860;DHT22;12936;52.006;4.350;2022-10-30T11:23:35;19.40;99.90
24860;DHT22;12936;52.006;4.350;2022-10-30T11:26:27;19.40;99.90
24860;DHT22;12936;52.006;4.350;2022-10-30T11:29:00;19.40;99.90
24860;DHT22;12936;52.006;4.350;2022-10-30T11:31:30;19.40;99.90
24860;DHT22;12936;52.006;4.350;2022-10-30T11:34:30;19.50;99.90
24860;DHT22;12936;52.006;4.350;2022-10-30T11:36:58;19.50;99.90
24860;DHT22;12936;52.006;4.350;2022-10-30T11:39:27;19.50;99.90
24860;DHT22;12936;52.006;4.350;2022-10-30T11:41:59;19.60;99.90
24860;DHT22;12936;52.006;4.350;2022-10-30T11:44:32;19.60;99.90
24860;DHT22;12936;52.006;4.350;2022-10-30T11:47:02;19.70;99.90
24860;DHT22;12936;52.006;4.350;2022-10-30T11:49:41;19.70;99.90
24860;DHT22;12936;52.006;4.350;2022-10-30T11:52:12;19.70;99.90
24860;DHT22;12936;52.006;4.350;2022-10-30T11:54:45;19.70;99.90
24860;DHT22;12936;52.006;4.350;2022-10-30T11:57:20;19.70;99.90
24860;DHT22;12936;52.006;4.350;2022-10-30T11:59:53;19.80;99.90
24860;DHT22;12936;52.006;4.350;2022-10-30T12:02:29;19.80;99.90
24860;DHT22;12936;52.006;4.350;2022-10-30T12:05:29;19.80;99.90
24860;DHT22;12936;52.006;4.350;2022-10-30T12:08:18;19.80;99.90
24860;DHT22;12936;52.006;4.350;2022-10-30T12:10:56;19.80;99.90
24860;DHT22;12936;52.006;4.350;2022-10-30T12:13:25;19.90;99.90
24860;DHT22;12936;52.006;4.350;2022-10-30T12:16:08;19.90;99.90
24860;DHT22;12936;52.006;4.350;2022-10-30T12:18:37;19.90;99.90
24860;DHT22;12936;52.006;4.350;2022-10-30T12:21:06;19.90;99.90
24860;DHT22;12936;52.006;4.350;2022-10-30T12:23:34;19.90;99.90
24860;DHT22;12936;52.006;4.350;2022-10-30T12:26:09;19.90;99.90
24860;DHT22;12936;52.006;4.350;2022-10-30T12:28:37;19.90;99.90
24860;DHT22;12936;52.006;4.350;2022-10-30T12:31:10;19.90;99.90
24860;DHT22;12936;52.006;4.350;2022-10-30T12:33:41;19.90;99.90
24860;DHT22;12936;52.006;4.350;2022-10-30T12:36:13;19.80;99.90
24860;DHT22;12936;52.006;4.350;2022-10-30T12:38:44;19.80;99.90
24860;DHT22;12936;52.006;4.350;2022-10-30T12:41:17;19.80;99.90
24860;DHT22;12936;52.006;4.350;2022-10-30T12:43:51;19.80;99.90
24860;DHT22;12936;52.006;4.350;2022-10-30T12:46:29;19.80;99.90
24860;DHT22;12936;52.006;4.350;2022-10-30T12:49:06;19.80;99.90
24860;DHT22;12936;52.006;4.350;2022-10-30T12:51:41;19.80;99.90
24860;DHT22;12936;52.006;4.350;2022-10-30T12:54:19;19.80;99.90
24860;DHT22;12936;52.006;4.350;2022-10-30T12:56:52;19.80;99.90
24860;DHT22;12936;52.006;4.350;2022-10-30T12:59:29;19.80;99.90
24860;DHT22;12936;52.006;4.350;2022-10-30T13:02:09;19.80;99.90
24860;DHT22;12936;52.006;4.350;2022-10-30T13:04:43;19.80;99.90
24860;DHT22;12936;52.006;4.350;2022-10-30T13:07:19;19.80;99.90
24860;DHT22;12936;52.006;4.350;2022-10-30T13:10:00;19.80;99.90
24860;DHT22;12936;52.006;4.350;2022-10-30T13:12:32;19.80;99.90
24860;DHT22;12936;52.006;4.350;2022-10-30T13:15:03;19.80;99.90
24860;DHT22;12936;52.006;4.350;2022-10-30T13:17:34;19.80;99.90
24860;DHT22;12936;52.006;4.350;2022-10-30T13:20:07;19.80;99.90
24860;DHT22;12936;52.006;4.350;2022-10-30T13:22:44;19.80;99.90
24860;DHT22;12936;52.006;4.350;2022-10-30T13:25:19;19.80;99.90
24860;DHT22;12936;52.006;4.350;2022-10-30T13:27:52;19.80;99.90
24860;DHT22;12936;52.006;4.350;2022-10-30T13:30:24;19.90;99.90
24860;DHT22;12936;52.006;4.350;2022-10-30T13:33:02;19.90;99.90
24860;DHT22;12936;52.006;4.350;2022-10-30T13:35:37;20.00;99.90
24860;DHT22;12936;52.006;4.350;2022-10-30T13:38:22;20.00;99.90
24860;DHT22;12936;52.006;4.350;2022-10-30T13:40:56;20.00;99.90
24860;DHT22;12936;52.006;4.350;2022-10-30T13:43:31;20.00;99.90
24860;DHT22;12936;52.006;4.350;2022-10-30T13:49:30;20.00;99.90
24860;DHT22;12936;52.006;4.350;2022-10-30T13:52:07;20.00;99.90
24860;DHT22;12936;52.006;4.350;2022-10-30T13:54:43;19.90;99.90
24860;DHT22;12936;52.006;4.350;2022-10-30T13:57:17;19.90;99.90
24860;DHT22;12936;52.006;4.350;2022-10-30T13:59:56;19.90;99.90
24860;DHT22;12936;52.006;4.350;2022-10-30T14:02:37;19.80;99.90
24860;DHT22;12936;52.006;4.350;2022-10-30T14:05:17;19.80;99.90
24860;DHT22;12936;52.006;4.350;2022-10-30T14:07:51;19.70;99.90
24860;DHT22;12936;52.006;4.350;2022-10-30T14:10:30;19.70;99.90
24860;DHT22;12936;52.006;4.350;2022-10-30T14:13:13;19.60;99.90
24860;DHT22;12936;52.006;4.350;2022-10-30T14:15:44;19.60;99.90
24860;DHT22;12936;52.006;4.350;2022-10-30T14:18:45;19.60;99.90
24860;DHT22;12936;52.006;4.350;2022-10-30T14:21:35;19.60;99.90
24860;DHT22;12936;52.006;4.350;2022-10-30T14:24:16;19.50;99.90
24860;DHT22;12936;52.006;4.350;2022-10-30T14:26:49;19.50;99.90
24860;DHT22;12936;52.006;4.350;2022-10-30T14:29:40;19.50;99.90
24860;DHT22;12936;52.006;4.350;2022-10-30T14:32:39;19.50;99.90
24860;DHT22;12936;52.006;4.350;2022-10-30T14:35:36;19.40;99.90
24860;DHT22;12936;52.006;4.350;2022-10-30T14:38:25;19.40;99.90
24860;DHT22;12936;52.006;4.350;2022-10-30T14:43:58;19.30;99.90
24860;DHT22;12936;52.006;4.350;2022-10-30T14:46:35;19.30;99.90
24860;DHT22;12936;52.006;4.350;2022-10-30T14:49:22;19.30;99.90
24860;DHT22;12936;52.006;4.350;2022-10-30T14:52:03;19.20;99.90
24860;DHT22;12936;52.006;4.350;2022-10-30T14:54:46;19.20;99.90
24860;DHT22;12936;52.006;4.350;2022-10-30T14:57:43;19.20;99.90
24860;DHT22;12936;52.006;4.350;2022-10-30T15:00:38;19.20;99.90
24860;DHT22;12936;52.006;4.350;2022-10-30T15:03:36;19.10;99.90
24860;DHT22;12936;52.006;4.350;2022-10-30T15:06:19;19.10;99.90
24860;DHT22;12936;52.006;4.350;2022-10-30T15:08:58;19.00;99.90
24860;DHT22;12936;52.006;4.350;2022-10-30T15:12:01;19.00;99.90
24860;DHT22;12936;52.006;4.350;2022-10-30T15:14:35;19.00;99.90
24860;DHT22;12936;52.006;4.350;2022-10-30T15:17:25;19.00;99.90
24860;DHT22;12936;52.006;4.350;2022-10-30T15:19:54;19.00;99.90
24860;DHT22;12936;52.006;4.350;2022-10-30T15:22:26;18.90;99.90
24860;DHT22;12936;52.006;4.350;2022-10-30T15:24:55;18.90;99.90
24860;DHT22;12936;52.006;4.350;2022-10-30T15:27:26;18.90;99.90
24860;DHT22;12936;52.006;4.350;2022-10-30T15:30:00;18.90;99.90
24860;DHT22;12936;52.006;4.350;2022-10-30T15:32:29;18.90;99.90
24860;DHT22;12936;52.006;4.350;2022-10-30T15:34:59;18.90;99.90
24860;DHT22;12936;52.006;4.350;2022-10-30T15:37:29;18.90;99.90
24860;DHT22;12936;52.006;4.350;2022-10-30T15:40:13;18.90;99.90
24860;DHT22;12936;52.006;4.350;2022-10-30T15:42:45;18.90;99.90
24860;DHT22;12936;52.006;4.350;2022-10-30T15:45:17;18.90;99.90
24860;DHT22;12936;52.006;4.350;2022-10-30T15:47:47;18.80;99.90
24860;DHT22;12936;52.006;4.350;2022-10-30T15:50:19;18.80;99.90
24860;DHT22;12936;52.006;4.350;2022-10-30T15:52:47;18.80;99.90
24860;DHT22;12936;52.006;4.350;2022-10-30T15:55:27;18.80;99.90
24860;DHT22;12936;52.006;4.350;2022-10-30T15:58:01;18.80;99.90
24860;DHT22;12936;52.006;4.350;2022-10-30T16:00:39;18.70;99.90
24860;DHT22;12936;52.006;4.350;2022-10-30T16:03:15;18.70;99.90
24860;DHT22;12936;52.006;4.350;2022-10-30T16:05:44;18.70;99.90
24860;DHT22;12936;52.006;4.350;2022-10-30T16:08:16;18.70;99.90
24860;DHT22;12936;52.006;4.350;2022-10-30T16:10:46;18.70;99.90
24860;DHT22;12936;52.006;4.350;2022-10-30T16:13:18;18.70;99.90
24860;DHT22;12936;52.006;4.350;2022-10-30T16:15:47;18.70;99.90